Time;durP1;ratioP1;P1;durP2;ratioP2;P2;SDS_P1;SDS_P2;PMS_P1;PMS_P2;Temp;Humidity;BMP_temperature;BMP_pressure;BME280_temperature;BME280_humidity;BME280_pressure;Samples;Min_cycle;Max_cycle;Signal;HPM_P1;HPM_P2
2022/03/23 00:01:59;;;;;;;2.83;1.80;;;;;;;6.78;31.38;96093.13;4927549;28;20217;-65
2022/03/23 00:04:24;;;;;;;3.97;1.97;;;;;;;6.70;30.96;96093.66;4927385;29;20303;-64
2022/03/23 00:06:50;;;;;;;5.07;2.03;;;;;;;6.59;31.17;96088.31;4923911;29;20734;-65
2022/03/23 00:09:15;;;;;;;4.77;2.03;;;;;;;6.69;30.94;96089.38;4930373;29;20561;-64
2022/03/23 00:11:42;;;;;;;3.30;2.00;;;;;;;6.62;31.31;96083.69;4934604;29;20228;-64
2022/03/23 00:14:09;;;;;;;3.30;2.03;;;;;;;6.67;30.97;96083.41;4927552;29;20573;-65
2022/03/23 00:16:36;;;;;;;3.87;1.77;;;;;;;6.57;31.39;96083.16;4932089;29;20205;-65
2022/03/23 00:19:03;;;;;;;6.43;2.13;;;;;;;6.56;31.88;96071.03;4928346;29;20220;-65
2022/03/23 00:21:28;;;;;;;5.07;1.80;;;;;;;6.53;31.71;96081.69;4935030;29;20716;-64
2022/03/23 00:23:54;;;;;;;4.07;2.13;;;;;;;6.54;31.35;96075.53;4932262;29;20272;-64
2022/03/23 00:26:20;;;;;;;4.00;2.00;;;;;;;6.49;31.29;96071.53;4933666;29;20291;-64
2022/03/23 00:28:45;;;;;;;4.23;2.00;;;;;;;6.39;31.57;96074.78;4934874;29;20228;-64
2022/03/23 00:31:11;;;;;;;5.40;2.20;;;;;;;6.39;31.53;96077.38;4927441;29;20236;-64
2022/03/23 00:33:36;;;;;;;3.53;1.80;;;;;;;6.38;31.76;96067.84;4923829;29;20327;-64
2022/03/23 00:36:03;;;;;;;3.97;1.97;;;;;;;6.38;31.41;96067.03;4927624;29;20225;-63
2022/03/23 00:38:29;;;;;;;3.63;1.77;;;;;;;6.38;30.97;96070.47;4939309;28;20343;-64
2022/03/23 00:40:55;;;;;;;3.77;1.87;;;;;;;6.38;31.48;96067.84;4947242;28;20352;-64
2022/03/23 00:43:21;;;;;;;3.97;2.00;;;;;;;6.48;31.21;96054.22;4948908;28;20305;-64
2022/03/23 00:45:47;;;;;;;4.90;2.00;;;;;;;6.40;31.27;96070.38;4931963;29;20235;-64
2022/03/23 00:48:12;;;;;;;3.77;1.97;;;;;;;6.31;31.81;96068.38;4927934;29;20279;-64
2022/03/23 00:50:38;;;;;;;4.73;2.20;;;;;;;6.22;31.22;96058.53;4928921;29;20242;-64
2022/03/23 00:53:03;;;;;;;3.03;2.10;;;;;;;6.35;31.32;96075.06;4942849;28;20208;-64
2022/03/23 00:55:29;;;;;;;3.90;1.93;;;;;;;6.39;31.29;96077.38;4928169;29;20204;-64
2022/03/23 00:57:54;;;;;;;3.03;1.97;;;;;;;6.30;31.45;96071.91;4933002;29;20229;-64
2022/03/23 01:00:20;;;;;;;3.30;1.67;;;;;;;6.36;31.00;96077.59;4934955;29;20241;-64
2022/03/23 01:02:46;;;;;;;2.80;1.90;;;;;;;6.33;31.16;96076.94;4926453;29;20260;-64
2022/03/23 01:05:13;;;;;;;3.77;1.80;;;;;;;6.22;31.44;96080.25;4926734;29;20336;-64
2022/03/23 01:07:39;;;;;;;3.40;2.20;;;;;;;6.24;31.07;96077.53;4926752;29;20224;-64
2022/03/23 01:10:07;;;;;;;3.47;2.13;;;;;;;6.27;31.26;96077.34;4927380;29;20239;-64
2022/03/23 01:12:32;;;;;;;5.40;2.20;;;;;;;6.18;31.70;96074.38;4923478;29;20299;-64
2022/03/23 01:14:58;;;;;;;4.10;1.90;;;;;;;6.13;31.84;96079.06;4928363;29;20236;-64
2022/03/23 01:17:25;;;;;;;4.20;1.97;;;;;;;6.14;32.04;96082.50;4924821;29;20318;-64
2022/03/23 01:19:52;;;;;;;5.53;2.00;;;;;;;6.12;31.32;96074.78;4941661;28;20223;-64
2022/03/23 01:22:17;;;;;;;4.10;1.77;;;;;;;5.99;31.89;96073.91;4925068;29;20348;-64
2022/03/23 01:24:44;;;;;;;3.80;1.90;;;;;;;6.02;31.93;96073.69;4924750;29;20228;-64
2022/03/23 01:27:09;;;;;;;5.23;2.20;;;;;;;5.94;31.90;96066.34;4931120;29;20319;-64
2022/03/23 01:29:35;;;;;;;3.73;2.00;;;;;;;5.93;32.25;96066.41;4926511;29;20230;-64
2022/03/23 01:32:00;;;;;;;7.10;2.57;;;;;;;5.92;32.49;96055.13;4930544;29;20224;-64
2022/03/23 01:34:26;;;;;;;5.20;2.20;;;;;;;5.86;32.22;96068.59;4931978;29;20212;-64
2022/03/23 01:36:51;;;;;;;5.37;2.50;;;;;;;5.78;32.57;96064.78;4931825;29;20272;-64
2022/03/23 01:39:17;;;;;;;4.37;2.20;;;;;;;5.73;32.02;96052.84;4928930;29;20239;-65
2022/03/23 01:41:42;;;;;;;4.60;2.20;;;;;;;5.74;32.44;96054.53;4930222;29;20237;-64
2022/03/23 01:44:17;;;;;;;4.57;2.13;;;;;;;5.80;32.51;96057.69;4933906;29;20212;-63
2022/03/23 01:47:01;;;;;;;4.70;2.20;;;;;;;5.70;32.53;96053.06;4927965;29;20283;-64
2022/03/23 01:49:27;;;;;;;3.80;2.20;;;;;;;5.57;32.83;96059.97;4932553;29;20235;-64
2022/03/23 01:51:52;;;;;;;4.90;2.20;;;;;;;5.62;32.82;96057.09;4932731;29;20244;-63
2022/03/23 01:54:18;;;;;;;3.83;2.00;;;;;;;5.64;32.75;96063.88;4931563;29;20232;-63
2022/03/23 01:56:44;;;;;;;5.37;2.03;;;;;;;5.52;32.91;96048.97;4929561;29;20233;-64
2022/03/23 01:59:10;;;;;;;4.20;2.10;;;;;;;5.63;32.88;96051.75;4931228;29;20217;-63
2022/03/23 02:01:38;;;;;;;8.27;2.27;;;;;;;5.52;33.08;96049.81;4929110;29;20212;-63
2022/03/23 02:04:04;;;;;;;3.53;2.20;;;;;;;5.57;33.00;96067.81;4928507;29;20236;-63
2022/03/23 02:06:29;;;;;;;2.60;1.80;;;;;;;5.51;32.91;96052.53;4948262;28;20240;-63
2022/03/23 02:08:55;;;;;;;3.70;1.97;;;;;;;5.48;33.17;96057.91;4936373;29;20244;-64
2022/03/23 02:11:20;;;;;;;5.37;2.50;;;;;;;5.47;33.15;96056.25;4935434;29;20275;-64
2022/03/23 02:13:46;;;;;;;4.53;2.20;;;;;;;5.50;33.01;96061.28;4933503;29;20223;-64
2022/03/23 02:16:11;;;;;;;3.97;1.60;;;;;;;5.41;33.57;96054.03;4933007;29;20224;-65
2022/03/23 02:18:37;;;;;;;5.50;2.33;;;;;;;5.41;33.87;96056.66;4934621;29;20315;-66
2022/03/23 02:21:02;;;;;;;5.23;2.20;;;;;;;5.29;33.84;96060.81;4931040;29;20300;-65
2022/03/23 02:23:28;;;;;;;5.07;2.10;;;;;;;5.20;34.90;96058.78;4931039;29;20229;-65
2022/03/23 02:26:00;;;;;;;4.37;2.20;;;;;;;5.25;34.02;96062.78;4934945;29;20672;-65
2022/03/23 02:28:27;;;;;;;4.20;2.40;;;;;;;5.16;34.90;96060.75;4931586;29;20248;-65
2022/03/23 02:30:53;;;;;;;3.50;2.17;;;;;;;5.07;34.83;96067.34;4928389;29;20237;-64
2022/03/23 02:33:20;;;;;;;3.63;2.27;;;;;;;5.14;34.73;96056.56;4931065;29;20313;-64
2022/03/23 02:35:48;;;;;;;5.07;2.30;;;;;;;5.06;34.21;96064.84;4927992;29;20221;-63
2022/03/23 02:38:16;;;;;;;4.23;2.50;;;;;;;4.98;35.04;96073.13;4950991;28;20248;-63
2022/03/23 02:40:42;;;;;;;6.60;2.30;;;;;;;4.84;35.23;96058.31;4935571;29;20244;-63
2022/03/23 02:43:08;;;;;;;4.80;2.53;;;;;;;4.74;35.54;96064.16;4933040;29;20225;-66
2022/03/23 02:45:33;;;;;;;3.30;2.10;;;;;;;4.89;35.56;96073.66;4933501;29;20232;-63
2022/03/23 02:47:59;;;;;;;7.60;2.47;;;;;;;4.91;35.23;96071.81;4932195;28;20570;-66
2022/03/23 02:50:24;;;;;;;4.93;2.40;;;;;;;4.75;35.50;96074.47;4928129;29;20231;-66
2022/03/23 03:03:54;;;;;;;3.73;2.00;;;;;;;4.46;36.63;96088.34;4948080;28;20259;-66
2022/03/23 03:06:19;;;;;;;6.80;2.33;;;;;;;4.42;36.60;96085.94;4927025;29;20237;-65
2022/03/23 03:08:45;;;;;;;8.70;2.90;;;;;;;4.37;36.86;96072.34;4933639;29;20235;-67
2022/03/23 03:11:11;;;;;;;10.30;2.67;;;;;;;4.39;36.99;96080.91;4929210;29;20206;-65
2022/03/23 03:13:38;;;;;;;5.23;2.90;;;;;;;4.23;37.29;96087.09;4932335;29;20216;-65
2022/03/23 03:16:03;;;;;;;7.30;2.47;;;;;;;4.28;37.24;96083.28;4927235;29;20229;-66
2022/03/23 03:18:33;;;;;;;6.43;2.83;;;;;;;4.36;37.48;96086.28;4936968;29;20229;-66
2022/03/23 03:21:03;;;;;;;6.40;3.00;;;;;;;4.53;37.51;96084.47;4929753;29;20233;-65
2022/03/23 03:23:30;;;;;;;4.57;2.00;;;;;;;4.58;37.27;96088.50;4947417;28;20225;-65
2022/03/23 03:25:56;;;;;;;5.90;2.23;;;;;;;4.68;36.94;96090.56;4926481;29;20248;-65
2022/03/23 03:28:22;;;;;;;6.63;2.20;;;;;;;4.65;37.12;96094.16;4930109;29;20315;-66
2022/03/23 03:30:47;;;;;;;5.30;2.10;;;;;;;4.62;37.52;96094.34;4929306;29;20231;-65
2022/03/23 03:33:13;;;;;;;5.07;2.53;;;;;;;4.69;37.30;96079.22;4928867;29;20225;-65
2022/03/23 03:35:44;;;;;;;3.50;2.20;;;;;;;4.74;37.49;96077.19;4932721;29;20236;-66
2022/03/23 03:38:10;;;;;;;5.33;2.70;;;;;;;4.78;37.99;96084.72;4934022;29;20283;-65
2022/03/23 03:40:36;;;;;;;8.30;2.50;;;;;;;4.77;37.92;96070.00;4929872;29;20247;-65
2022/03/23 03:43:02;;;;;;;4.83;2.20;;;;;;;4.78;38.29;96079.50;4925455;29;20232;-65
2022/03/23 03:45:28;;;;;;;4.60;2.40;;;;;;;4.73;38.25;96084.16;4931251;29;22211;-65
2022/03/23 03:47:53;;;;;;;5.60;2.57;;;;;;;4.68;38.61;96074.91;4929951;29;20358;-65
2022/03/23 03:50:19;;;;;;;5.77;2.40;;;;;;;4.65;38.68;96081.16;4929515;29;20276;-65
2022/03/23 03:52:45;;;;;;;5.50;2.50;;;;;;;4.63;38.81;96070.00;4944231;29;20234;-65
2022/03/23 03:55:10;;;;;;;4.83;2.27;;;;;;;4.74;38.95;96077.19;4935458;29;20232;-65
2022/03/23 03:57:35;;;;;;;7.40;2.70;;;;;;;4.70;38.90;96068.69;4931481;29;20224;-65
2022/03/23 04:00:01;;;;;;;6.07;2.63;;;;;;;4.73;38.79;96078.97;4931634;29;20299;-66
2022/03/23 04:02:27;;;;;;;4.93;2.20;;;;;;;4.70;38.96;96080.88;4931769;29;20280;-66
2022/03/23 04:04:52;;;;;;;4.77;2.63;;;;;;;4.71;39.73;96082.59;4932774;29;20213;-66
2022/03/23 04:07:18;;;;;;;8.30;2.63;;;;;;;4.58;39.78;96083.28;4926523;29;20239;-66
2022/03/23 04:09:43;;;;;;;6.03;2.60;;;;;;;4.61;40.29;96082.28;4931269;29;20331;-65
2022/03/23 04:12:09;;;;;;;4.77;2.10;;;;;;;4.64;39.86;96085.53;4943591;29;20309;-66
2022/03/23 04:14:35;;;;;;;4.37;2.30;;;;;;;4.64;40.15;96089.91;4929179;29;20255;-67
2022/03/23 04:17:00;;;;;;;5.33;2.60;;;;;;;4.66;40.32;96090.66;4926870;28;20216;-66
2022/03/23 04:19:26;;;;;;;7.20;2.17;;;;;;;4.61;40.22;96077.88;4924338;29;20220;-66
2022/03/23 04:21:51;;;;;;;6.40;2.70;;;;;;;4.57;40.73;96079.00;4928305;29;20248;-67
2022/03/23 04:24:16;;;;;;;3.63;2.07;;;;;;;4.47;40.71;96080.47;4925304;29;20283;-65
2022/03/23 04:26:44;;;;;;;9.43;2.67;;;;;;;4.49;40.72;96085.56;4930634;29;20237;-68
2022/03/23 04:29:09;;;;;;;8.07;2.80;;;;;;;4.40;40.63;96085.19;4937696;29;20362;-65
2022/03/23 04:31:35;;;;;;;9.27;3.47;;;;;;;4.32;41.27;96089.16;4933417;29;20217;-65
2022/03/23 04:34:00;;;;;;;7.43;3.43;;;;;;;4.30;41.50;96093.59;4933473;29;20259;-65
2022/03/23 04:36:26;;;;;;;11.10;2.97;;;;;;;4.26;41.43;96087.75;4930443;29;20307;-67
2022/03/23 04:38:51;;;;;;;8.83;3.00;;;;;;;4.30;41.61;96096.19;4932083;29;20308;-67
2022/03/23 04:41:17;;;;;;;4.83;2.87;;;;;;;4.41;41.39;96091.22;4929929;28;20268;-67
2022/03/23 04:43:42;;;;;;;9.03;3.13;;;;;;;4.27;41.33;96086.81;4931710;29;20708;-67
2022/03/23 04:46:08;;;;;;;13.87;3.07;;;;;;;4.22;41.86;96091.44;4934123;28;20243;-66
2022/03/23 04:48:33;;;;;;;10.30;3.60;;;;;;;4.17;41.84;96090.84;4928327;29;20233;-67
2022/03/23 04:50:59;;;;;;;13.43;4.20;;;;;;;4.17;41.99;96081.28;4928175;29;20239;-67
2022/03/23 04:53:25;;;;;;;8.80;3.30;;;;;;;4.11;42.25;96086.81;4932522;29;20225;-67
2022/03/23 04:55:50;;;;;;;8.10;3.83;;;;;;;4.23;41.99;96087.91;4927392;29;20291;-67
2022/03/23 04:58:15;;;;;;;16.10;3.90;;;;;;;4.22;42.36;96086.22;4943997;28;20231;-67
2022/03/23 05:00:41;;;;;;;12.33;3.30;;;;;;;4.27;41.96;96083.38;4927543;29;20252;-67
2022/03/23 05:03:07;;;;;;;7.63;3.23;;;;;;;4.25;42.07;96085.22;4935975;29;20251;-67
2022/03/23 05:05:33;;;;;;;11.30;4.03;;;;;;;4.28;41.99;96092.88;4929900;29;20244;-67
2022/03/23 05:07:58;;;;;;;12.27;3.70;;;;;;;4.29;42.33;96092.75;4923836;28;20247;-67
2022/03/23 05:10:24;;;;;;;11.30;3.57;;;;;;;4.29;42.20;96082.34;4928779;29;20255;-67
2022/03/23 05:12:50;;;;;;;5.13;2.93;;;;;;;4.26;41.86;96092.94;4933675;29;20323;-68
2022/03/23 05:15:16;;;;;;;9.73;4.37;;;;;;;4.38;42.27;96094.88;4933482;29;20229;-68
2022/03/23 05:17:44;;;;;;;9.13;3.90;;;;;;;4.46;41.84;96098.78;4941010;29;20244;-68
2022/03/23 05:20:10;;;;;;;7.27;3.03;;;;;;;4.48;41.77;96102.97;4938967;28;20213;-67
2022/03/23 05:22:37;;;;;;;10.60;4.10;;;;;;;4.43;41.62;96099.78;4936366;29;20232;-67
2022/03/23 05:25:03;;;;;;;9.83;3.83;;;;;;;4.38;42.12;96094.00;4930872;29;20272;-67
2022/03/23 05:27:35;;;;;;;11.10;4.43;;;;;;;4.50;41.86;96098.53;4933498;29;20241;-68
2022/03/23 05:30:02;;;;;;;7.13;3.50;;;;;;;4.38;42.11;96107.88;4944468;28;20288;-68
2022/03/23 05:32:28;;;;;;;10.30;4.07;;;;;;;4.40;42.18;96099.97;4929165;29;20299;-68
2022/03/23 05:34:53;;;;;;;7.80;3.90;;;;;;;4.50;41.88;96097.69;4931377;29;20221;-68
2022/03/23 05:37:19;;;;;;;8.87;3.83;;;;;;;4.55;42.17;96109.50;4939299;29;20228;-67
2022/03/23 05:39:45;;;;;;;7.93;3.97;;;;;;;4.46;42.00;96102.22;4951864;28;20244;-67
2022/03/23 05:42:11;;;;;;;9.17;3.80;;;;;;;4.50;41.93;96108.09;4947261;28;20662;-66
2022/03/23 05:44:37;;;;;;;8.40;3.70;;;;;;;4.47;42.59;96105.69;4934985;29;20232;-68
2022/03/23 05:47:03;;;;;;;17.80;4.50;;;;;;;4.63;42.15;96109.06;4933858;29;20885;-66
2022/03/23 05:49:29;;;;;;;12.20;4.53;;;;;;;4.66;42.03;96108.91;4934132;29;20216;-66
2022/03/23 05:51:54;;;;;;;11.93;4.40;;;;;;;4.70;41.70;96112.97;4924126;29;20226;-67
2022/03/23 05:54:21;;;;;;;11.80;4.83;;;;;;;4.78;41.63;96110.78;4941762;29;20277;-67
2022/03/23 05:56:46;;;;;;;8.17;4.50;;;;;;;4.93;41.48;96108.22;4938181;29;20285;-70
2022/03/23 05:59:12;;;;;;;8.47;4.00;;;;;;;4.95;41.21;96101.16;4914691;29;20218;-67
2022/03/23 06:01:37;;;;;;;13.53;4.70;;;;;;;5.02;41.47;96115.47;4933351;29;20206;-65
2022/03/23 06:04:03;;;;;;;11.73;4.40;;;;;;;5.07;41.39;96111.66;4931248;29;20328;-63
2022/03/23 06:06:29;;;;;;;10.50;4.10;;;;;;;5.10;41.37;96110.63;4933926;29;20237;-63
2022/03/23 06:08:54;;;;;;;10.57;4.37;;;;;;;5.27;41.03;96109.66;4929348;29;20243;-63
2022/03/23 06:11:20;;;;;;;10.97;4.27;;;;;;;5.33;41.00;96118.88;4933682;29;20228;-63
2022/03/23 06:13:45;;;;;;;11.50;4.70;;;;;;;5.47;40.83;96113.66;4938277;29;20264;-64
2022/03/23 06:16:11;;;;;;;8.63;4.23;;;;;;;5.47;41.25;96124.06;4933962;29;20235;-68
2022/03/23 06:18:37;;;;;;;8.33;4.27;;;;;;;5.57;40.74;96119.16;4934153;29;20243;-63
2022/03/23 06:21:03;;;;;;;7.33;4.13;;;;;;;5.59;41.04;96109.47;4946936;28;20230;-67
2022/03/23 06:23:29;;;;;;;9.37;3.90;;;;;;;5.56;41.11;96113.09;4932927;28;20236;-67
2022/03/23 06:25:55;;;;;;;9.47;4.50;;;;;;;5.59;41.70;96107.69;4923272;29;20538;-62
2022/03/23 06:28:21;;;;;;;9.63;4.57;;;;;;;5.72;41.34;96115.56;4940342;29;20297;-62
2022/03/23 06:30:47;;;;;;;9.50;4.63;;;;;;;5.77;41.50;96110.06;4930979;29;20308;-62
2022/03/23 06:33:12;;;;;;;12.60;5.87;;;;;;;5.86;41.89;96118.19;4932463;29;20323;-62
2022/03/23 06:35:38;;;;;;;10.17;5.10;;;;;;;5.84;42.06;96108.75;4929956;29;20237;-61
2022/03/23 06:38:04;;;;;;;8.53;4.77;;;;;;;5.89;42.08;96104.09;4930409;29;20212;-63
2022/03/23 06:40:29;;;;;;;10.30;5.90;;;;;;;5.91;42.13;96108.28;4933993;29;20227;-66
2022/03/23 06:42:55;;;;;;;11.40;5.40;;;;;;;6.02;42.12;96109.41;4930932;29;20217;-67
2022/03/23 06:45:20;;;;;;;10.50;5.30;;;;;;;6.09;42.32;96111.53;4937657;29;20228;-65
2022/03/23 06:47:46;;;;;;;12.53;4.97;;;;;;;6.07;42.61;96117.81;4938528;29;20236;-65
2022/03/23 06:50:12;;;;;;;9.50;4.77;;;;;;;6.01;42.39;96118.16;4934892;29;20227;-66
2022/03/23 06:52:37;;;;;;;7.33;4.27;;;;;;;6.12;42.22;96116.56;4936323;29;20240;-65
2022/03/23 06:55:03;;;;;;;6.60;4.17;;;;;;;6.07;42.65;96115.19;4929324;29;20260;-66
2022/03/23 06:57:29;;;;;;;8.27;4.30;;;;;;;6.14;42.08;96119.91;4926596;29;20233;-65
2022/03/23 06:59:54;;;;;;;8.17;4.20;;;;;;;6.32;41.84;96112.66;4927456;29;20231;-65
2022/03/23 07:02:20;;;;;;;12.70;4.90;;;;;;;6.37;41.86;96118.44;4931984;29;20248;-66
2022/03/23 07:04:46;;;;;;;10.63;4.37;;;;;;;6.49;41.88;96127.25;4930589;29;20658;-66
2022/03/23 07:07:11;;;;;;;7.57;4.23;;;;;;;6.46;41.88;96126.63;4936148;29;20232;-65
2022/03/23 07:09:39;;;;;;;7.00;4.50;;;;;;;6.53;41.69;96128.75;4933121;29;20254;-64
2022/03/23 07:12:08;;;;;;;6.07;4.17;;;;;;;6.55;41.39;96129.47;4926674;29;20308;-66
2022/03/23 07:14:35;;;;;;;6.63;4.03;;;;;;;6.40;41.78;96123.47;4931254;29;20221;-64
2022/03/23 07:17:01;;;;;;;7.97;4.10;;;;;;;6.56;41.51;96133.75;4930675;29;20205;-65
2022/03/23 07:19:27;;;;;;;8.17;4.13;;;;;;;6.66;41.17;96130.56;4930351;29;20219;-65
2022/03/23 07:21:53;;;;;;;7.77;4.03;;;;;;;6.64;40.74;96130.66;4928707;29;20247;-60
2022/03/23 07:24:19;;;;;;;10.53;4.57;;;;;;;6.69;40.42;96135.59;4936680;29;20232;-60
2022/03/23 07:26:45;;;;;;;8.53;4.00;;;;;;;6.69;40.69;96135.59;4930056;29;20228;-60
2022/03/23 07:29:11;;;;;;;9.27;3.63;;;;;;;6.74;40.13;96138.75;4931511;29;20196;-61
2022/03/23 07:31:36;;;;;;;7.00;3.90;;;;;;;6.69;39.97;96127.75;4931668;29;20205;-61
2022/03/23 07:34:03;;;;;;;13.67;5.43;;;;;;;6.67;40.23;96132.22;4933066;29;20295;-64
2022/03/23 07:36:29;;;;;;;7.33;4.07;;;;;;;6.79;40.15;96128.78;4927117;29;20232;-64
2022/03/23 07:38:54;;;;;;;8.37;3.80;;;;;;;6.87;39.89;96131.75;4928829;29;21197;-64
2022/03/23 07:41:20;;;;;;;9.13;3.43;;;;;;;6.89;39.76;96137.69;4933433;29;20229;-62
2022/03/23 07:43:45;;;;;;;11.10;3.63;;;;;;;6.89;39.57;96132.47;4928253;29;20205;-62
2022/03/23 07:46:11;;;;;;;7.73;3.90;;;;;;;6.93;39.37;96136.56;4929358;29;20236;-63
2022/03/23 07:48:37;;;;;;;6.37;3.60;;;;;;;6.93;39.55;96130.50;4924324;29;20237;-60
2022/03/23 07:51:02;;;;;;;9.93;3.50;;;;;;;6.91;39.11;96135.00;4928727;29;20221;-65
2022/03/23 07:53:27;;;;;;;7.80;3.17;;;;;;;6.96;39.21;96132.91;4932611;29;20224;-64
2022/03/23 07:55:54;;;;;;;7.33;3.40;;;;;;;6.58;40.30;96124.06;4931632;29;20204;-63
2022/03/23 07:58:20;;;;;;;5.20;2.77;;;;;;;6.31;41.05;96121.47;4934157;29;20228;-64
2022/03/23 08:00:45;;;;;;;5.07;3.27;;;;;;;6.56;41.08;96123.31;4925130;29;20245;-65
2022/03/23 08:03:11;;;;;;;10.57;3.40;;;;;;;6.89;39.90;96126.41;4929181;29;20276;-64
2022/03/23 08:05:42;;;;;;;5.90;2.87;;;;;;;7.07;39.77;96130.41;4927162;29;20225;-65
2022/03/23 08:08:09;;;;;;;6.33;2.80;;;;;;;7.16;39.22;96124.56;4943272;28;20208;-65
2022/03/23 08:10:35;;;;;;;7.07;2.97;;;;;;;7.33;38.74;96126.06;4928914;29;20208;-63
2022/03/23 08:13:02;;;;;;;6.53;2.77;;;;;;;7.28;38.13;96123.75;4926674;29;20232;-63
2022/03/23 08:15:29;;;;;;;6.80;2.70;;;;;;;7.57;38.05;96122.69;4934147;29;20229;-63
2022/03/23 08:17:58;;;;;;;5.93;3.43;;;;;;;7.36;37.64;96117.16;4932242;29;20263;-63
2022/03/23 08:20:32;;;;;;;6.20;3.47;;;;;;;7.37;37.69;96111.78;4949875;28;20220;-62
2022/03/23 08:22:58;;;;;;;6.27;3.20;;;;;;;7.55;37.74;96107.09;4928600;29;20274;-62
2022/03/23 08:25:24;;;;;;;5.30;2.90;;;;;;;7.45;37.80;96108.66;4928780;29;20283;-61
2022/03/23 08:27:50;;;;;;;5.20;2.90;;;;;;;7.44;37.69;96105.22;4925660;29;20316;-60
2022/03/23 08:30:15;;;;;;;7.43;3.70;;;;;;;7.54;37.38;96123.75;4926727;29;20228;-63
2022/03/23 08:32:41;;;;;;;9.60;3.23;;;;;;;7.74;36.98;96117.09;4924768;29;20299;-62
2022/03/23 08:35:07;;;;;;;6.53;3.80;;;;;;;7.75;36.84;96121.38;4928363;29;20282;-65
2022/03/23 08:37:33;;;;;;;8.60;3.70;;;;;;;7.65;36.67;96120.38;4930528;29;20479;-65
2022/03/23 08:39:59;;;;;;;6.57;3.70;;;;;;;7.49;36.48;96110.13;4926055;29;20232;-65
2022/03/23 08:42:25;;;;;;;5.70;3.33;;;;;;;7.47;36.70;96123.31;4926298;29;20315;-65
2022/03/23 08:44:50;;;;;;;8.20;3.37;;;;;;;7.72;35.88;96124.22;4913653;29;20236;-61
2022/03/23 08:47:17;;;;;;;8.30;3.20;;;;;;;7.78;36.32;96120.34;4927412;29;20231;-65
2022/03/23 08:49:43;;;;;;;6.07;3.67;;;;;;;7.86;35.59;96118.88;4940419;29;20223;-63
2022/03/23 08:52:09;;;;;;;6.87;3.60;;;;;;;7.90;35.32;96112.47;4940701;29;20224;-62
2022/03/23 08:54:34;;;;;;;7.03;3.27;;;;;;;7.88;35.65;96122.19;4937017;29;20317;-64
2022/03/23 08:57:00;;;;;;;7.17;3.70;;;;;;;7.98;35.62;96118.94;4929753;29;20237;-64
2022/03/23 08:59:26;;;;;;;4.13;3.20;;;;;;;7.96;35.80;96116.44;4946419;28;20580;-60
2022/03/23 09:01:51;;;;;;;6.83;3.23;;;;;;;8.08;35.16;96112.13;4930932;29;20208;-61
2022/03/23 09:04:17;;;;;;;6.33;3.40;;;;;;;7.68;35.50;96112.31;4930736;29;20240;-62
2022/03/23 09:06:42;;;;;;;7.10;3.20;;;;;;;8.04;34.99;96108.03;4931972;29;20256;-65
2022/03/23 09:09:08;;;;;;;5.20;2.87;;;;;;;8.29;34.90;96113.19;4935655;29;20232;-67
2022/03/23 09:11:33;;;;;;;4.63;2.97;;;;;;;8.41;34.48;96103.63;4931292;29;20224;-65
2022/03/23 09:13:59;;;;;;;6.53;3.57;;;;;;;8.69;34.24;96107.69;4930336;29;20204;-66
2022/03/23 09:16:24;;;;;;;6.30;3.33;;;;;;;8.83;33.56;96104.88;4930469;29;20201;-66
2022/03/23 09:18:50;;;;;;;6.87;3.30;;;;;;;8.95;33.06;96103.09;4930161;29;20221;-65
2022/03/23 09:21:16;;;;;;;12.20;3.53;;;;;;;9.00;32.73;96102.78;4930221;29;20231;-64
2022/03/23 09:23:43;;;;;;;4.70;3.30;;;;;;;9.07;32.95;96101.38;4933038;29;20375;-63
2022/03/23 09:26:11;;;;;;;8.97;3.63;;;;;;;9.47;31.98;96106.19;4950209;28;20219;-65
2022/03/23 09:28:38;;;;;;;8.07;3.70;;;;;;;9.69;31.58;96103.56;4936756;29;20657;-67
2022/03/23 09:31:04;;;;;;;6.27;3.50;;;;;;;9.80;31.44;96107.16;4948378;28;20248;-61
2022/03/23 09:33:30;;;;;;;8.40;3.80;;;;;;;10.02;30.85;96096.59;4930308;29;20292;-67
2022/03/23 09:35:56;;;;;;;8.10;3.53;;;;;;;10.23;30.77;96096.69;4944071;29;20223;-68
2022/03/23 09:38:22;;;;;;;10.00;3.40;;;;;;;10.27;30.53;96094.69;4929855;29;20225;-64
2022/03/23 09:40:51;;;;;;;7.97;3.67;;;;;;;10.21;30.85;96087.25;4931490;29;20250;-64
2022/03/23 09:43:20;;;;;;;5.80;3.07;;;;;;;10.36;30.35;96081.63;4946182;29;20316;-63
2022/03/23 09:45:48;;;;;;;5.33;3.07;;;;;;;10.29;31.11;96085.75;4935050;29;20224;-63
2022/03/23 09:48:16;;;;;;;8.60;3.70;;;;;;;10.27;30.67;96090.28;4933177;29;20241;-63
2022/03/23 09:50:47;;;;;;;9.47;3.87;;;;;;;10.36;30.75;96084.25;4927267;29;20224;-65
2022/03/23 09:53:13;;;;;;;4.53;3.50;;;;;;;10.44;29.96;96083.66;4941843;28;20265;-65
2022/03/23 09:55:39;;;;;;;6.43;3.90;;;;;;;10.58;29.82;96086.00;4945086;29;20481;-64
2022/03/23 09:58:09;;;;;;;3.83;3.13;;;;;;;10.80;29.54;96078.97;4932080;29;20236;-64
2022/03/23 10:00:44;;;;;;;7.40;3.90;;;;;;;11.08;29.16;96072.22;4934049;29;20231;-64
2022/03/23 10:03:09;;;;;;;7.80;3.23;;;;;;;11.19;29.25;96079.22;4943806;29;20255;-67
2022/03/23 10:06:21;;;;;;;7.70;3.55;;;;;;;11.33;29.12;96076.25;4933553;29;20241;-65
2022/03/23 10:09:25;;;;;;;7.13;3.33;;;;;;;11.28;28.38;96075.81;4941604;29;20282;-67
2022/03/23 10:12:21;;;;;;;12.32;3.38;;;;;;;11.32;28.21;96068.50;4853123;29;20306;-65
2022/03/23 10:15:24;;;;;;;8.52;3.60;;;;;;;11.07;28.98;96065.31;4858628;29;20227;-65
2022/03/23 10:17:55;;;;;;;9.17;4.53;;;;;;;11.04;29.27;96066.41;4861188;29;20235;-66
2022/03/23 10:20:21;;;;;;;6.70;3.50;;;;;;;10.88;28.75;96066.00;4872040;29;20509;-67
2022/03/23 10:22:51;;;;;;;4.70;3.80;;;;;;;10.54;29.34;96062.69;4869759;29;20753;-65
2022/03/23 10:25:19;;;;;;;9.65;3.90;;;;;;;10.41;29.39;96062.88;4867871;29;20242;-65
2022/03/23 10:27:45;;;;;;;9.80;3.27;;;;;;;10.59;29.05;96061.34;4851721;29;20353;-65
2022/03/23 10:30:14;;;;;;;9.37;3.50;;;;;;;10.78;28.25;96058.03;4871505;29;20258;-66
2022/03/23 10:32:42;;;;;;;5.20;3.67;;;;;;;10.68;28.39;96059.75;4853616;29;20242;-65
2022/03/23 10:35:13;;;;;;;7.63;3.50;;;;;;;10.41;27.57;96054.97;4874416;29;20300;-64
2022/03/23 10:37:39;;;;;;;6.73;3.40;;;;;;;10.42;28.33;96059.25;4859411;29;20219;-64
2022/03/23 10:40:11;;;;;;;4.03;2.97;;;;;;;10.34;27.67;96052.03;4871930;29;20295;-64
2022/03/23 10:42:40;;;;;;;7.07;3.10;;;;;;;10.66;27.70;96045.88;4868135;29;20238;-64
2022/03/23 10:45:16;;;;;;;6.77;3.33;;;;;;;11.07;26.72;96053.94;4855537;29;20250;-64
2022/03/23 10:47:44;;;;;;;4.50;2.90;;;;;;;11.22;26.17;96039.47;4872327;29;20232;-66
2022/03/23 10:50:10;;;;;;;4.53;3.00;;;;;;;11.46;26.28;96045.25;4926188;29;20212;-67
2022/03/23 10:52:35;;;;;;;8.35;3.65;;;;;;;11.70;25.94;96020.41;4929855;29;20285;-65
2022/03/23 10:55:05;;;;;;;5.93;3.20;;;;;;;11.83;25.10;96031.53;4929210;29;20229;-66
2022/03/23 10:57:52;;;;;;;7.03;2.73;;;;;;;12.19;24.60;96025.81;4921698;29;20232;-65
2022/03/23 11:00:30;;;;;;;7.03;3.10;;;;;;;12.24;24.59;96023.59;4943358;28;20275;-65
2022/03/23 11:02:57;;;;;;;6.20;2.65;;;;;;;12.22;24.37;96020.28;4923708;29;20251;-64
2022/03/23 11:05:44;;;;;;;6.50;3.07;;;;;;;12.37;23.65;96008.34;4929363;29;20324;-65
2022/03/23 11:08:28;;;;;;;6.33;2.57;;;;;;;12.47;23.44;96003.06;4946329;28;20220;-66
2022/03/23 11:16:33;;;;;;;6.20;2.65;;;;;;;12.97;23.28;95987.03;4924355;29;20324;-64
2022/03/23 11:19:12;;;;;;;10.07;3.42;;;;;;;13.12;23.08;95992.69;4909688;29;20711;-62
2022/03/23 11:22:05;;;;;;;5.05;2.80;;;;;;;13.28;22.38;96000.03;4923237;29;20237;-61
2022/03/23 11:24:46;;;;;;;6.97;3.33;;;;;;;13.27;22.30;95990.47;4922758;29;20217;-62
2022/03/23 11:27:17;;;;;;;11.98;3.45;;;;;;;13.36;22.62;95990.41;4938723;29;20442;-62
2022/03/23 11:29:44;;;;;;;11.10;3.85;;;;;;;13.31;22.74;95997.09;4929309;29;20240;-63
2022/03/23 11:32:38;;;;;;;8.07;3.10;;;;;;;13.54;22.66;95985.19;4945349;29;20271;-64
2022/03/23 11:35:05;;;;;;;5.43;3.00;;;;;;;13.55;23.26;95983.38;4926890;29;20216;-64
2022/03/23 11:37:34;;;;;;;7.20;3.05;;;;;;;13.54;23.21;95987.84;4946029;29;20291;-62
2022/03/23 11:39:59;;;;;;;6.77;3.00;;;;;;;13.41;23.63;95982.88;4929393;29;20233;-64
2022/03/23 11:42:25;;;;;;;5.25;3.33;;;;;;;13.65;23.15;95979.72;4931034;29;20273;-63
2022/03/23 11:44:50;;;;;;;5.63;2.75;;;;;;;13.86;22.47;95970.69;4934054;29;20224;-61
2022/03/23 11:47:41;;;;;;;5.85;3.15;;;;;;;13.80;22.11;95971.31;4933287;28;20256;-62
2022/03/23 11:50:19;;;;;;;7.68;2.78;;;;;;;14.02;22.40;95977.97;4947533;29;20220;-63
2022/03/23 11:52:57;;;;;;;7.30;2.95;;;;;;;14.15;21.02;95972.31;4930507;29;20303;-63
2022/03/23 11:55:42;;;;;;;6.80;2.88;;;;;;;14.09;20.46;95960.53;4927403;29;20497;-59
2022/03/23 11:58:21;;;;;;;6.65;3.00;;;;;;;14.24;20.59;95963.47;4942188;28;20221;-60